Time;durP1;ratioP1;P1;durP2;ratioP2;P2;SDS_P1;SDS_P2;PMS_P1;PMS_P2;Temp;Humidity;BMP_temperature;BMP_pressure;BME280_temperature;BME280_humidity;BME280_pressure;Samples;Min_cycle;Max_cycle;Signal;HPM_P1;HPM_P2
2022/01/12 00:01:15;;;;;;;114.28;39.67;;;3.90;99.90;;;;;;5098824;28;20047;-80
2022/01/12 00:03:45;;;;;;;102.55;38.13;;;3.90;99.90;;;;;;5098275;28;20047;-79
2022/01/12 00:06:11;;;;;;;111.75;35.60;;;3.90;99.90;;;;;;5098193;28;20053;-82
2022/01/12 00:08:38;;;;;;;212.55;48.40;;;3.90;99.90;;;;;;5115239;28;20046;-82
2022/01/12 00:11:04;;;;;;;130.40;42.10;;;3.90;99.90;;;;;;5115169;28;20039;-79
2022/01/12 00:13:32;;;;;;;218.15;49.95;;;3.90;99.90;;;;;;5098020;28;20036;-81
2022/01/12 00:15:58;;;;;;;170.88;44.15;;;4.00;99.90;;;;;;5091922;28;20054;-79
2022/01/12 00:18:24;;;;;;;197.98;48.90;;;3.90;99.90;;;;;;5114757;28;20052;-81
2022/01/12 00:20:51;;;;;;;212.55;50.13;;;4.00;99.90;;;;;;5097889;28;20036;-80
2022/01/12 00:23:18;;;;;;;242.80;52.85;;;4.00;99.90;;;;;;5114939;28;20043;-80
2022/01/12 00:26:06;;;;;;;227.77;52.42;;;4.00;99.90;;;;;;5097760;28;20043;-81
2022/01/12 00:34:05;;;;;;;220.57;53.70;;;4.10;99.90;;;;;;5115867;28;20393;-81
2022/01/12 00:36:31;;;;;;;248.27;55.80;;;4.10;99.90;;;;;;5115910;28;20092;-82
2022/01/12 00:38:58;;;;;;;212.13;52.03;;;4.10;99.90;;;;;;5099062;28;20108;-82
2022/01/12 00:41:24;;;;;;;281.45;61.25;;;4.10;99.90;;;;;;5098999;28;20105;-81
2022/01/12 00:43:57;;;;;;;174.93;48.55;;;4.20;99.90;;;;;;5116114;28;20040;-80
2022/01/12 00:46:24;;;;;;;209.38;49.67;;;4.20;99.90;;;;;;5116212;28;20075;-81
2022/01/12 00:48:51;;;;;;;269.90;60.10;;;4.20;99.90;;;;;;5094376;28;20130;-82
2022/01/12 00:51:17;;;;;;;262.15;54.58;;;4.20;99.90;;;;;;5098943;28;20346;-80
2022/01/12 00:53:42;;;;;;;274.23;61.05;;;4.20;99.90;;;;;;5098849;28;20042;-81
2022/01/12 00:56:08;;;;;;;327.25;63.30;;;4.20;99.90;;;;;;5098746;28;20505;-80
2022/01/12 00:58:34;;;;;;;295.33;56.50;;;4.20;99.90;;;;;;5098684;28;20574;-84
2022/01/12 01:01:01;;;;;;;260.83;52.15;;;4.20;99.90;;;;;;5093027;28;20441;-81
2022/01/12 01:03:29;;;;;;;161.63;47.67;;;4.30;99.90;;;;;;5115023;28;20054;-80
2022/01/12 01:05:55;;;;;;;182.60;47.50;;;4.30;99.90;;;;;;5096762;28;20260;-80
2022/01/12 01:08:22;;;;;;;251.38;54.55;;;4.30;99.90;;;;;;5097147;28;20039;-79
2022/01/12 01:10:51;;;;;;;370.50;65.97;;;4.30;99.90;;;;;;5115362;28;20573;-81
2022/01/12 01:13:22;;;;;;;320.90;59.85;;;4.30;99.90;;;;;;5098640;28;20043;-81
2022/01/12 01:26:30;;;;;;;234.50;53.25;;;4.30;99.90;;;;;;5114735;28;20105;-79
2022/01/12 01:28:55;;;;;;;244.13;54.00;;;4.40;99.90;;;;;;5096459;28;20047;-82
2022/01/12 01:31:28;;;;;;;265.52;54.78;;;4.30;99.90;;;;;;5113520;28;20358;-81
2022/01/12 01:33:54;;;;;;;369.70;66.05;;;4.30;99.90;;;;;;5096521;28;20054;-81
2022/01/12 01:36:20;;;;;;;180.73;47.38;;;4.40;99.90;;;;;;5130497;27;20035;-81
2022/01/12 01:38:46;;;;;;;216.68;51.60;;;4.30;99.90;;;;;;5113275;28;20053;-81
2022/01/12 01:41:11;;;;;;;243.52;53.65;;;4.40;99.90;;;;;;5114651;28;20052;-80
2022/01/12 01:43:54;;;;;;;196.27;48.58;;;4.40;99.90;;;;;;5097679;28;20075;-80
2022/01/12 01:54:33;;;;;;;251.00;52.78;;;4.40;99.90;;;;;;5114772;28;20081;-81
2022/01/12 01:56:58;;;;;;;301.27;59.75;;;4.40;99.90;;;;;;5114374;28;20043;-80
2022/01/12 01:59:24;;;;;;;204.05;47.72;;;4.40;99.90;;;;;;5092968;28;20138;-81
2022/01/12 02:01:50;;;;;;;221.20;48.83;;;4.40;99.90;;;;;;5113802;28;20068;-80
2022/01/12 02:04:16;;;;;;;182.40;44.75;;;4.40;99.90;;;;;;5114450;28;20511;-80
2022/01/12 02:06:42;;;;;;;180.20;43.30;;;4.40;99.90;;;;;;5114286;28;20043;-81
2022/01/12 02:09:07;;;;;;;273.08;53.42;;;4.40;99.90;;;;;;5114406;28;20050;-81
2022/01/12 02:11:33;;;;;;;210.57;49.05;;;4.40;99.90;;;;;;5113915;28;20121;-80
2022/01/12 02:14:00;;;;;;;198.55;45.78;;;4.40;99.90;;;;;;5114338;28;20112;-81
2022/01/12 02:16:34;;;;;;;206.15;46.58;;;4.40;99.90;;;;;;5113726;28;20098;-80
2022/01/12 02:40:30;;;;;;;240.52;49.35;;;4.50;99.90;;;;;;5111043;28;20047;-80
2022/01/12 02:43:09;;;;;;;492.80;71.95;;;4.60;99.90;;;;;;5096955;28;20067;-81
2022/01/12 02:53:38;;;;;;;450.33;68.53;;;4.50;99.90;;;;;;5113358;28;20143;-81
2022/01/12 02:53:50;;;;;;;328.80;53.65;;;4.50;99.90;;;;;;5101015;28;20134;-79
2022/01/12 02:56:19;;;;;;;266.30;49.20;;;4.40;99.90;;;;;;5094911;28;20142;-80
2022/01/12 02:58:47;;;;;;;190.45;42.13;;;4.40;99.90;;;;;;5094516;28;20050;-84
2022/01/12 03:03:45;;;;;;;462.65;60.55;;;4.40;99.90;;;;;;5113664;28;20055;-81
2022/01/12 03:06:16;;;;;;;219.23;44.28;;;4.40;99.90;;;;;;5096554;28;20078;-79
2022/01/12 03:08:42;;;;;;;196.15;42.75;;;4.40;99.90;;;;;;5096443;28;20046;-80
2022/01/12 03:11:11;;;;;;;349.58;57.58;;;4.30;99.90;;;;;;5096078;28;20126;-81
2022/01/12 03:13:37;;;;;;;188.30;43.35;;;4.40;99.90;;;;;;5096164;28;20039;-81
2022/01/12 03:16:12;;;;;;;395.27;59.42;;;4.40;99.90;;;;;;5095957;28;20051;-81
2022/01/12 03:18:38;;;;;;;233.48;47.53;;;4.40;99.90;;;;;;5095743;28;20354;-79
2022/01/12 03:21:04;;;;;;;185.18;42.53;;;4.40;99.90;;;;;;5094647;28;20055;-81
2022/01/12 03:23:31;;;;;;;158.63;40.72;;;4.40;99.90;;;;;;5094453;28;20108;-80
2022/01/12 03:25:57;;;;;;;179.20;43.05;;;4.50;99.90;;;;;;5094376;28;20131;-81
2022/01/12 03:28:23;;;;;;;177.75;41.50;;;4.50;99.90;;;;;;5094611;28;20079;-83
2022/01/12 03:30:54;;;;;;;126.88;34.38;;;4.50;99.90;;;;;;5112825;28;20428;-83
2022/01/12 03:38:48;;;;;;;124.47;33.88;;;4.50;99.90;;;;;;5112859;28;20684;-81
2022/01/12 03:41:14;;;;;;;123.05;33.58;;;4.60;99.90;;;;;;5096062;28;20032;-81
2022/01/12 03:43:40;;;;;;;207.88;40.33;;;4.60;99.90;;;;;;5113021;28;20047;-81
2022/01/12 03:46:06;;;;;;;102.75;31.25;;;4.50;99.90;;;;;;5095783;28;20035;-83
2022/01/12 03:48:32;;;;;;;215.57;41.45;;;4.60;99.90;;;;;;5112994;28;20047;-81
2022/01/12 03:50:57;;;;;;;142.23;38.00;;;4.50;99.90;;;;;;5112719;28;20518;-82
2022/01/12 03:53:24;;;;;;;137.15;35.40;;;4.60;99.90;;;;;;5112814;28;20035;-80
2022/01/12 03:55:50;;;;;;;121.53;34.28;;;4.50;99.90;;;;;;5095665;28;20040;-81
2022/01/12 03:58:17;;;;;;;162.98;36.80;;;4.60;99.90;;;;;;5095641;28;20422;-80
2022/01/12 04:00:42;;;;;;;360.48;55.08;;;4.50;99.90;;;;;;5095792;28;20040;-79
2022/01/12 04:03:09;;;;;;;181.68;39.08;;;4.50;99.90;;;;;;5107621;28;20176;-80
2022/01/12 04:08:21;;;;;;;133.18;35.53;;;4.50;99.90;;;;;;5111823;28;20040;-81
2022/01/12 04:10:52;;;;;;;168.80;35.63;;;4.40;99.90;;;;;;5095413;28;20605;-81
2022/01/12 04:13:19;;;;;;;106.70;30.55;;;4.40;99.90;;;;;;5112790;28;20031;-82
2022/01/12 04:15:47;;;;;;;265.08;46.17;;;4.30;99.90;;;;;;5112301;28;20056;-81
2022/01/12 04:18:14;;;;;;;513.00;51.20;;;4.20;99.90;;;;;;5095342;28;20368;-81
2022/01/12 04:20:47;;;;;;;638.47;61.75;;;4.10;99.90;;;;;;5112491;28;20131;-80
2022/01/12 04:23:20;;;;;;;524.58;54.00;;;4.00;99.90;;;;;;5095707;28;20383;-79
2022/01/12 04:25:57;;;;;;;410.70;48.60;;;3.90;99.90;;;;;;5095819;28;20088;-81
2022/01/12 04:28:25;;;;;;;186.55;27.83;;;3.70;99.90;;;;;;5095626;28;20046;-79
2022/01/12 04:30:53;;;;;;;379.25;46.50;;;3.60;99.90;;;;;;5111941;28;20039;-80
2022/01/12 04:33:20;;;;;;;367.70;36.30;;;3.50;99.90;;;;;;5093800;28;20136;-80
2022/01/12 04:35:50;;;;;;;477.48;48.47;;;3.50;99.90;;;;;;5093984;28;20043;-81
2022/01/12 04:38:17;;;;;;;496.73;42.80;;;3.40;99.90;;;;;;5099018;28;20032;-81
2022/01/12 04:40:45;;;;;;;283.35;22.30;;;3.30;99.90;;;;;;5097719;28;20048;-80
2022/01/12 04:43:11;;;;;;;319.15;23.88;;;3.20;99.90;;;;;;5098840;28;20420;-82
2022/01/12 04:48:33;;;;;;;471.65;43.70;;;2.90;99.90;;;;;;5116066;28;20524;-81
2022/01/12 04:50:58;;;;;;;420.20;39.17;;;2.80;99.90;;;;;;5099115;28;20084;-80
2022/01/12 04:53:25;;;;;;;85.68;11.43;;;2.70;99.90;;;;;;5115676;28;20410;-84
2022/01/12 04:55:52;;;;;;;320.17;30.48;;;2.60;99.90;;;;;;5098363;28;20461;-81
2022/01/12 04:58:18;;;;;;;91.50;13.10;;;2.50;99.90;;;;;;5096979;28;20054;-79
2022/01/12 05:00:46;;;;;;;244.23;32.10;;;2.40;99.90;;;;;;5097500;28;20090;-79
2022/01/12 05:13:57;;;;;;;279.13;28.05;;;2.30;99.90;;;;;;5113876;28;20142;-79
2022/01/12 05:16:23;;;;;;;375.08;37.55;;;2.30;99.90;;;;;;5115278;28;20051;-81
2022/01/12 05:18:51;;;;;;;307.17;30.88;;;2.20;99.90;;;;;;5113886;28;20109;-83
2022/01/12 05:21:18;;;;;;;280.63;29.48;;;2.10;99.90;;;;;;5114059;28;20077;-81
2022/01/12 05:23:44;;;;;;;157.65;20.20;;;1.90;99.90;;;;;;5113990;28;20452;-79
2022/01/12 05:26:10;;;;;;;329.38;40.00;;;1.80;99.90;;;;;;5113932;28;20104;-80
2022/01/12 05:28:38;;;;;;;358.15;36.88;;;1.80;99.90;;;;;;5096703;28;20039;-79
2022/01/12 05:31:05;;;;;;;409.30;49.55;;;1.80;99.90;;;;;;5097938;28;20090;-81
2022/01/12 05:33:31;;;;;;;269.25;39.72;;;1.80;99.90;;;;;;5097637;28;20047;-80
2022/01/12 05:35:59;;;;;;;289.73;33.00;;;1.90;99.90;;;;;;5096580;28;20039;-80
2022/01/12 05:38:26;;;;;;;427.70;45.35;;;1.90;99.90;;;;;;5097653;28;20044;-81
2022/01/12 05:40:55;;;;;;;447.23;48.45;;;1.90;99.90;;;;;;5096762;28;20422;-80
2022/01/12 05:43:26;;;;;;;292.38;31.95;;;1.90;99.90;;;;;;5098121;28;20402;-81
2022/01/12 05:45:53;;;;;;;;;;;1.90;99.90;;;;;;5098580;28;20055;-84
2022/01/12 05:50:49;;;;;;;377.10;38.42;;;1.80;99.90;;;;;;5114374;28;20052;-81
2022/01/12 05:53:17;;;;;;;403.83;41.47;;;1.70;99.90;;;;;;5097653;28;20082;-79
2022/01/12 05:55:43;;;;;;;148.20;20.50;;;1.60;99.90;;;;;;5097527;28;20039;-80
2022/01/12 05:58:11;;;;;;;415.48;46.47;;;1.50;99.90;;;;;;5114439;28;20058;-80
2022/01/12 06:00:37;;;;;;;269.83;27.98;;;1.40;99.90;;;;;;5113440;28;20617;-81
2022/01/12 06:03:03;;;;;;;185.32;22.50;;;1.30;99.90;;;;;;5113226;28;20047;-81
2022/01/12 06:05:29;;;;;;;152.27;22.88;;;1.20;99.90;;;;;;5114126;28;20591;-79
2022/01/12 06:07:55;;;;;;;207.75;32.65;;;1.20;99.90;;;;;;5113793;28;20130;-79
2022/01/12 06:10:24;;;;;;;240.20;33.05;;;1.20;99.90;;;;;;5114320;28;20375;-80
2022/01/12 06:12:52;;;;;;;342.15;40.08;;;1.20;99.90;;;;;;5097099;28;20053;-79
2022/01/12 06:15:18;;;;;;;260.65;33.13;;;1.10;99.90;;;;;;5096640;28;20039;-81
2022/01/12 06:17:44;;;;;;;180.40;24.40;;;1.10;99.90;;;;;;5095504;28;20047;-79
2022/01/12 06:20:10;;;;;;;141.82;17.48;;;1.10;99.90;;;;;;5130087;27;20353;-79
2022/01/12 06:22:36;;;;;;;133.25;21.13;;;1.00;99.90;;;;;;5112629;28;20105;-80
2022/01/12 06:25:06;;;;;;;197.35;25.92;;;1.00;99.90;;;;;;5095772;28;20433;-79
2022/01/12 06:27:34;;;;;;;347.80;45.28;;;1.00;99.90;;;;;;5108461;28;20081;-81
2022/01/12 06:32:43;;;;;;;200.30;27.85;;;1.00;99.90;;;;;;5130310;27;20476;-79
2022/01/12 06:35:09;;;;;;;172.98;29.15;;;1.00;99.90;;;;;;5112663;28;20047;-80
2022/01/12 06:37:35;;;;;;;249.95;32.30;;;0.90;99.90;;;;;;5096225;28;20089;-81
2022/01/12 06:40:01;;;;;;;304.83;36.50;;;0.90;99.90;;;;;;5096620;28;20086;-79
2022/01/12 06:42:26;;;;;;;216.18;29.45;;;0.90;99.90;;;;;;5112354;28;20426;-79
2022/01/12 06:44:52;;;;;;;108.95;18.73;;;0.90;99.90;;;;;;5113739;28;20085;-80
2022/01/12 06:47:19;;;;;;;59.55;12.48;;;0.80;99.90;;;;;;5112517;28;20373;-79
2022/01/12 06:49:45;;;;;;;151.50;19.15;;;0.80;99.90;;;;;;5096495;28;20107;-79
2022/01/12 06:52:10;;;;;;;219.82;24.25;;;0.80;99.90;;;;;;5113171;28;20539;-79
2022/01/12 06:54:36;;;;;;;190.80;23.80;;;0.80;99.90;;;;;;5113418;28;20134;-80
2022/01/12 06:57:02;;;;;;;199.45;25.45;;;0.80;99.90;;;;;;5096542;28;20368;-78
2022/01/12 06:59:28;;;;;;;156.10;21.83;;;0.80;99.90;;;;;;5095609;28;20039;-81
2022/01/12 07:01:54;;;;;;;87.88;17.60;;;0.80;99.90;;;;;;5112402;28;20059;-81
2022/01/12 07:04:20;;;;;;;105.82;19.00;;;0.90;99.90;;;;;;5112138;28;20400;-81
2022/01/12 07:06:46;;;;;;;86.15;15.45;;;0.90;99.90;;;;;;5096343;28;20453;-79
2022/01/12 07:09:12;;;;;;;90.00;17.40;;;1.00;99.90;;;;;;5095890;28;20087;-79
2022/01/12 07:11:38;;;;;;;325.42;38.53;;;1.10;99.90;;;;;;5113466;28;20478;-79
2022/01/12 07:14:04;;;;;;;196.18;27.60;;;1.20;99.90;;;;;;5112907;28;20036;-79
2022/01/12 07:16:30;;;;;;;127.55;18.42;;;1.10;99.90;;;;;;5095634;28;20066;-83
2022/01/12 07:18:59;;;;;;;112.32;18.77;;;1.10;99.90;;;;;;5112960;28;20039;-81
2022/01/12 07:21:26;;;;;;;183.30;27.08;;;1.10;99.90;;;;;;5113276;28;20044;-79
2022/01/12 07:23:54;;;;;;;106.38;18.90;;;1.10;99.90;;;;;;5094894;28;20134;-81
2022/01/12 07:26:24;;;;;;;113.50;18.70;;;1.10;99.90;;;;;;5112615;28;20548;-81
2022/01/12 07:28:50;;;;;;;172.27;24.80;;;1.10;99.90;;;;;;5111899;28;20044;-79
2022/01/12 07:31:16;;;;;;;160.98;24.35;;;1.10;99.90;;;;;;5112264;28;20044;-80
2022/01/12 07:33:42;;;;;;;167.15;25.00;;;1.10;99.90;;;;;;5094332;28;20130;-80
2022/01/12 07:36:08;;;;;;;219.07;28.50;;;1.10;99.90;;;;;;5111924;28;20043;-79
2022/01/12 07:38:34;;;;;;;175.25;25.90;;;1.10;99.90;;;;;;5094345;28;20044;-78
2022/01/12 07:41:00;;;;;;;261.08;35.38;;;1.20;99.90;;;;;;5112830;28;20078;-80
2022/01/12 07:43:26;;;;;;;279.95;35.45;;;1.20;99.90;;;;;;5096021;28;20036;-80
2022/01/12 07:45:52;;;;;;;368.42;44.30;;;1.30;99.90;;;;;;5112820;28;20380;-81
2022/01/12 07:48:17;;;;;;;369.13;48.80;;;1.40;99.90;;;;;;5111499;28;20039;-81
2022/01/12 07:50:44;;;;;;;394.00;47.92;;;1.40;99.90;;;;;;5128865;28;20043;-81
2022/01/12 07:53:11;;;;;;;387.05;48.58;;;1.50;99.90;;;;;;5112273;28;20140;-80
2022/01/12 07:55:37;;;;;;;426.85;50.72;;;1.50;99.90;;;;;;5094625;28;20050;-81
2022/01/12 07:58:03;;;;;;;395.52;46.45;;;1.60;99.90;;;;;;5113015;28;20036;-80
2022/01/12 08:00:29;;;;;;;389.55;46.85;;;1.60;99.90;;;;;;5111991;28;20047;-81
2022/01/12 08:02:55;;;;;;;381.63;46.22;;;1.60;99.90;;;;;;5094490;28;20470;-80
2022/01/12 08:05:21;;;;;;;433.15;53.65;;;1.70;99.90;;;;;;5128676;27;20134;-81
2022/01/12 08:07:48;;;;;;;472.35;55.90;;;1.70;99.90;;;;;;5112115;28;20074;-80
2022/01/12 08:10:15;;;;;;;410.50;50.67;;;1.80;99.90;;;;;;5097492;28;20039;-80
2022/01/12 08:12:41;;;;;;;420.50;49.28;;;1.80;99.90;;;;;;5120028;28;20050;-80
2022/01/12 08:15:08;;;;;;;391.80;50.70;;;1.90;99.90;;;;;;5136872;27;20047;-80
2022/01/12 08:17:35;;;;;;;420.52;49.75;;;1.90;99.90;;;;;;5119793;28;20047;-80
2022/01/12 08:20:05;;;;;;;361.27;43.63;;;1.90;99.90;;;;;;5102992;28;20043;-80
2022/01/12 08:22:31;;;;;;;375.97;46.27;;;1.90;99.90;;;;;;5102263;28;20043;-79
2022/01/12 08:24:57;;;;;;;364.77;46.63;;;2.00;99.90;;;;;;5119970;28;20357;-79
2022/01/12 08:27:23;;;;;;;294.10;37.45;;;2.10;99.90;;;;;;5102987;28;20487;-82
2022/01/12 08:29:50;;;;;;;305.65;39.45;;;2.10;99.90;;;;;;5119667;28;20039;-80
2022/01/12 08:32:17;;;;;;;158.65;31.40;;;2.20;99.90;;;;;;5119995;28;20043;-82
2022/01/12 08:34:43;;;;;;;401.58;46.83;;;2.20;99.90;;;;;;5103112;28;20046;-81
2022/01/12 08:37:09;;;;;;;306.48;44.38;;;2.30;99.90;;;;;;5119866;28;20074;-82
2022/01/12 08:39:35;;;;;;;340.77;46.13;;;2.40;99.90;;;;;;5102661;28;20114;-81
2022/01/12 08:42:00;;;;;;;278.60;40.67;;;2.40;99.90;;;;;;5102958;28;20075;-79
2022/01/12 08:44:29;;;;;;;288.20;37.92;;;2.50;99.90;;;;;;5102670;28;20044;-81
2022/01/12 08:46:55;;;;;;;398.90;49.20;;;2.50;99.90;;;;;;5102647;28;20452;-80
2022/01/12 08:49:21;;;;;;;267.23;40.38;;;2.50;99.90;;;;;;5102533;28;20101;-81
2022/01/12 08:51:50;;;;;;;69.07;21.20;;;2.50;99.90;;;;;;5084886;28;20043;-81
2022/01/12 08:54:25;;;;;;;88.28;22.10;;;2.50;99.90;;;;;;5115759;28;20055;-80
2022/01/12 08:56:52;;;;;;;124.38;24.02;;;2.60;99.90;;;;;;5103206;28;20039;-80
2022/01/12 08:59:18;;;;;;;90.38;20.75;;;2.60;99.90;;;;;;5102390;28;20408;-81
2022/01/12 09:01:44;;;;;;;41.00;15.55;;;2.70;99.90;;;;;;5102073;28;20031;-81
2022/01/12 09:04:10;;;;;;;107.68;22.85;;;2.70;99.90;;;;;;5102105;28;20050;-83
2022/01/12 09:06:36;;;;;;;110.47;50.58;;;2.80;99.90;;;;;;5119877;28;20075;-81
2022/01/12 09:09:02;;;;;;;49.30;19.38;;;2.90;99.90;;;;;;5102651;28;20400;-82
2022/01/12 09:11:29;;;;;;;191.23;82.60;;;2.90;99.90;;;;;;5119360;28;20046;-81
2022/01/12 09:13:55;;;;;;;113.88;52.90;;;3.00;99.90;;;;;;5119665;28;20233;-82
2022/01/12 09:16:57;;;;;;;47.60;18.52;;;3.00;99.90;;;;;;5119075;28;20051;-87
2022/01/12 09:19:27;;;;;;;85.53;21.20;;;2.90;99.90;;;;;;5076889;28;20079;-83
2022/01/12 09:21:53;;;;;;;57.97;17.17;;;2.90;99.90;;;;;;5101283;28;20059;-81
2022/01/12 09:24:19;;;;;;;67.70;15.45;;;2.90;99.90;;;;;;5099586;28;20040;-82
2022/01/12 09:26:56;;;;;;;150.43;24.77;;;2.90;99.90;;;;;;5098892;28;20043;-82
2022/01/12 09:29:27;;;;;;;55.35;12.98;;;3.00;99.90;;;;;;5102207;28;20100;-81
2022/01/12 09:31:52;;;;;;;60.63;15.02;;;3.10;99.90;;;;;;5102978;27;20142;-81
2022/01/12 09:34:21;;;;;;;137.55;23.23;;;3.10;99.90;;;;;;5109253;27;20050;-81
2022/01/12 09:36:47;;;;;;;53.72;15.93;;;3.20;99.90;;;;;;5109410;27;20095;-81
2022/01/12 09:39:13;;;;;;;59.30;15.68;;;3.40;99.90;;;;;;5107094;27;20078;-81
2022/01/12 09:41:39;;;;;;;58.00;18.13;;;3.50;99.90;;;;;;5118426;28;20092;-80
2022/01/12 09:44:05;;;;;;;87.10;21.75;;;3.60;99.90;;;;;;5104779;28;20032;-80
2022/01/12 09:46:31;;;;;;;111.82;24.63;;;3.70;99.90;;;;;;5105417;28;20118;-82
2022/01/12 09:49:00;;;;;;;124.43;24.63;;;3.80;99.90;;;;;;5104921;28;20080;-80
2022/01/12 09:51:26;;;;;;;68.55;15.90;;;3.90;99.90;;;;;;5105878;28;20043;-80
2022/01/12 09:53:52;;;;;;;73.93;16.55;;;3.90;99.90;;;;;;5129782;27;20357;-81
2022/01/12 09:56:25;;;;;;;44.85;15.48;;;3.90;99.90;;;;;;5122169;27;20467;-81
2022/01/12 09:58:54;;;;;;;70.65;16.48;;;4.00;99.90;;;;;;5124691;27;20086;-80
2022/01/12 10:01:43;;;;;;;57.53;14.65;;;4.10;99.90;;;;;;5129399;27;20084;-79
2022/01/12 10:04:14;;;;;;;74.43;17.98;;;4.10;99.90;;;;;;5112224;28;20054;-83
2022/01/12 10:07:05;;;;;;;89.22;19.48;;;4.10;99.90;;;;;;5097836;28;22032;-81
2022/01/12 10:09:39;;;;;;;79.43;14.75;;;4.10;99.90;;;;;;5107015;28;20036;-80
2022/01/12 10:12:12;;;;;;;77.22;12.05;;;4.10;99.90;;;;;;5106674;27;20035;-80
2022/01/12 10:14:49;;;;;;;51.38;10.00;;;4.10;99.90;;;;;;5100635;27;20146;-79
2022/01/12 10:17:16;;;;;;;66.78;10.77;;;4.10;99.90;;;;;;5106921;28;20055;-80
2022/01/12 10:19:43;;;;;;;62.95;9.77;;;4.10;99.90;;;;;;5117852;28;20244;-82
2022/01/12 10:22:11;;;;;;;75.63;12.23;;;4.10;99.90;;;;;;5117259;28;20443;-81
2022/01/12 10:24:39;;;;;;;46.78;9.55;;;4.10;99.90;;;;;;5101489;28;20048;-80
2022/01/12 10:27:18;;;;;;;51.22;9.23;;;4.10;99.90;;;;;;5100600;28;20215;-81
2022/01/12 10:29:46;;;;;;;78.80;13.32;;;4.10;99.90;;;;;;5117636;27;20054;-81
2022/01/12 10:32:17;;;;;;;63.75;9.82;;;4.20;99.90;;;;;;5110720;27;20040;-79
2022/01/12 10:34:46;;;;;;;39.78;8.27;;;4.20;99.90;;;;;;5095393;28;20548;-82
2022/01/12 10:37:14;;;;;;;52.65;8.73;;;4.20;99.90;;;;;;5113092;28;20082;-78
2022/01/12 10:39:45;;;;;;;52.90;9.07;;;4.20;99.90;;;;;;5112576;28;20058;-80
2022/01/12 10:42:13;;;;;;;48.63;8.55;;;4.20;99.90;;;;;;5105811;28;20452;-80
2022/01/12 10:44:41;;;;;;;61.08;7.72;;;4.20;99.90;;;;;;5111139;28;20040;-80
2022/01/12 10:47:16;;;;;;;41.10;7.32;;;4.30;99.90;;;;;;5112118;28;20108;-80
2022/01/12 10:49:54;;;;;;;43.90;7.55;;;4.30;99.90;;;;;;5112051;28;20044;-78
2022/01/12 10:52:21;;;;;;;38.78;7.35;;;4.20;99.90;;;;;;5091520;28;20100;-79
2022/01/12 10:54:52;;;;;;;95.82;10.25;;;4.20;99.90;;;;;;5099776;28;20344;-80
2022/01/12 10:57:27;;;;;;;59.40;8.13;;;4.20;99.90;;;;;;5112942;28;20062;-79
2022/01/12 11:00:00;;;;;;;72.00;8.80;;;4.30;99.90;;;;;;5107454;28;20638;-79
2022/01/12 11:02:30;;;;;;;63.00;8.13;;;4.40;99.90;;;;;;5096289;28;20471;-81
2022/01/12 11:04:57;;;;;;;54.47;8.63;;;4.40;99.90;;;;;;5096425;28;20070;-81
2022/01/12 11:07:25;;;;;;;44.22;7.13;;;4.50;99.90;;;;;;5096265;28;20531;-82
2022/01/12 11:09:55;;;;;;;50.95;8.90;;;4.60;99.90;;;;;;5096026;28;20123;-81
2022/01/12 11:12:21;;;;;;;52.05;8.82;;;4.70;99.90;;;;;;5112147;28;20043;-80
2022/01/12 11:14:48;;;;;;;43.50;8.30;;;4.70;99.90;;;;;;5112174;28;20381;-80
2022/01/12 11:17:14;;;;;;;38.63;7.05;;;4.80;99.90;;;;;;5112364;28;20330;-81
2022/01/12 11:19:51;;;;;;;50.42;10.25;;;4.90;99.90;;;;;;5095111;28;20116;-80
2022/01/12 11:22:46;;;;;;;32.63;11.68;;;5.00;99.90;;;;;;5096625;28;20338;-81
2022/01/12 11:25:18;;;;;;;71.35;13.05;;;5.00;99.90;;;;;;5075069;28;20050;-82
2022/01/12 11:27:44;;;;;;;67.15;14.57;;;5.10;99.90;;;;;;5095870;28;20062;-79
2022/01/12 11:30:19;;;;;;;42.40;11.60;;;5.20;99.90;;;;;;5112427;28;20083;-83
2022/01/12 11:32:56;;;;;;;49.63;9.20;;;5.30;99.90;;;;;;5094831;28;20385;-81
2022/01/12 11:35:30;;;;;;;65.72;10.18;;;5.30;99.90;;;;;;5091045;28;20108;-80
2022/01/12 11:38:00;;;;;;;38.75;8.45;;;5.40;99.90;;;;;;5109380;28;20388;-81
2022/01/12 11:40:37;;;;;;;48.85;16.05;;;5.50;99.90;;;;;;5092108;28;20135;-79
2022/01/12 11:43:36;;;;;;;27.63;9.20;;;5.50;99.90;;;;;;5112589;28;20050;-79
2022/01/12 11:46:11;;;;;;;23.45;8.05;;;5.50;99.90;;;;;;5113380;28;20043;-80
2022/01/12 11:48:42;;;;;;;27.98;7.85;;;5.50;99.90;;;;;;5100207;28;20138;-81
2022/01/12 11:51:08;;;;;;;28.33;8.27;;;5.50;99.90;;;;;;5098832;28;20359;-81
2022/01/12 11:53:44;;;;;;;40.83;9.85;;;5.50;99.90;;;;;;5098569;28;20135;-81
2022/01/12 11:56:13;;;;;;;39.05;7.50;;;5.50;99.90;;;;;;5099820;28;20035;-81
2022/01/12 11:59:19;;;;;;;42.80;8.68;;;5.50;99.90;;;;;;5098967;28;20047;-79
2022/01/12 12:01:49;;;;;;;25.85;7.82;;;5.60;99.90;;;;;;5115690;28;20055;-81
2022/01/12 12:04:24;;;;;;;32.08;9.02;;;5.70;99.90;;;;;;5116138;28;20358;-79
2022/01/12 12:07:08;;;;;;;28.83;10.80;;;5.80;99.90;;;;;;5098463;28;20106;-81
2022/01/12 12:09:38;;;;;;;52.92;11.00;;;5.80;99.90;;;;;;5116470;28;20043;-80
2022/01/12 12:12:17;;;;;;;28.33;7.80;;;5.70;99.90;;;;;;5116050;28;20529;-80
2022/01/12 12:14:48;;;;;;;36.03;10.43;;;5.70;99.90;;;;;;5098548;28;20365;-79
2022/01/12 12:17:15;;;;;;;30.45;9.15;;;5.70;99.90;;;;;;5114674;28;20060;-80
2022/01/12 12:19:41;;;;;;;31.08;8.35;;;5.70;99.90;;;;;;5115133;28;20083;-80
2022/01/12 12:22:09;;;;;;;34.90;10.15;;;5.70;99.90;;;;;;5115032;28;20055;-80
2022/01/12 12:24:35;;;;;;;67.57;15.27;;;5.70;99.90;;;;;;5115345;28;20093;-81
2022/01/12 12:27:03;;;;;;;53.53;13.35;;;5.70;99.90;;;;;;5098540;28;20468;-81
2022/01/12 12:29:28;;;;;;;49.85;10.85;;;5.70;99.90;;;;;;5116140;28;20059;-79
2022/01/12 12:32:00;;;;;;;52.55;9.32;;;5.80;99.90;;;;;;5098691;28;20039;-81
2022/01/12 12:34:28;;;;;;;66.43;13.00;;;5.80;99.90;;;;;;5114803;28;20117;-80
2022/01/12 12:37:03;;;;;;;40.40;10.10;;;5.80;99.90;;;;;;5115333;28;20043;-80
2022/01/12 12:39:32;;;;;;;63.30;11.65;;;5.80;99.90;;;;;;5097735;28;20044;-81
2022/01/12 12:41:59;;;;;;;63.33;13.00;;;5.80;99.90;;;;;;5095769;28;20055;-80
2022/01/12 12:44:36;;;;;;;48.42;10.63;;;5.80;99.90;;;;;;5098201;28;20051;-83
2022/01/12 12:47:17;;;;;;;65.20;11.82;;;5.90;99.90;;;;;;5098149;28;20040;-81
2022/01/12 12:49:45;;;;;;;54.25;12.27;;;6.00;99.90;;;;;;5098995;28;20131;-81
2022/01/12 12:52:12;;;;;;;78.05;15.10;;;6.00;99.90;;;;;;5098831;28;20126;-81
2022/01/12 12:54:42;;;;;;;44.60;10.98;;;6.00;99.90;;;;;;5098406;28;20039;-80
2022/01/12 12:57:09;;;;;;;52.60;10.77;;;6.10;99.90;;;;;;5095207;28;20094;-81
2022/01/12 12:59:35;;;;;;;39.50;8.93;;;6.20;99.90;;;;;;5099002;28;20039;-80
2022/01/12 13:02:12;;;;;;;34.92;10.88;;;6.20;99.90;;;;;;5097414;28;20463;-80
2022/01/12 13:04:39;;;;;;;28.33;9.13;;;6.10;99.90;;;;;;5097211;28;20426;-80
2022/01/12 13:07:17;;;;;;;45.60;10.05;;;6.10;99.90;;;;;;5097358;28;20115;-82
2022/01/12 13:09:47;;;;;;;66.57;11.63;;;6.20;99.90;;;;;;5098555;28;20449;-81
2022/01/12 13:12:13;;;;;;;27.00;8.30;;;6.20;99.90;;;;;;5098606;28;20039;-80
2022/01/12 13:14:47;;;;;;;44.60;9.43;;;6.20;99.90;;;;;;5097344;28;20036;-84
2022/01/12 13:17:14;;;;;;;54.25;10.15;;;6.20;99.90;;;;;;5096406;28;20491;-81
2022/01/12 13:22:32;;;;;;;51.42;10.55;;;6.20;99.90;;;;;;5113987;28;20043;-82
2022/01/12 13:25:00;;;;;;;33.05;9.02;;;6.20;99.90;;;;;;5096772;28;20462;-81
2022/01/12 13:27:27;;;;;;;40.47;10.50;;;6.20;99.90;;;;;;5097918;28;20127;-81
2022/01/12 13:29:54;;;;;;;41.13;10.70;;;6.10;99.90;;;;;;5097707;28;20054;-79
2022/01/12 13:32:20;;;;;;;47.03;11.27;;;6.10;99.90;;;;;;5113654;28;20043;-80
2022/01/12 13:35:05;;;;;;;37.72;10.70;;;6.10;99.90;;;;;;5113309;28;20040;-81
2022/01/12 13:37:31;;;;;;;60.42;13.88;;;6.10;99.90;;;;;;5096725;28;20047;-81
2022/01/12 13:40:14;;;;;;;35.72;9.63;;;6.10;99.90;;;;;;5097923;28;20055;-81
2022/01/12 13:42:53;;;;;;;66.43;14.25;;;6.20;99.90;;;;;;5098086;28;20429;-80
2022/01/12 13:45:27;;;;;;;41.33;12.60;;;6.10;99.90;;;;;;5097385;28;20468;-79
2022/01/12 13:47:57;;;;;;;61.53;12.23;;;6.10;99.90;;;;;;5097925;28;20058;-81
2022/01/12 13:50:35;;;;;;;52.60;9.88;;;6.10;99.90;;;;;;5097709;28;20053;-82
2022/01/12 13:53:01;;;;;;;59.97;12.23;;;6.00;99.90;;;;;;5096469;28;20149;-81
2022/01/12 13:55:27;;;;;;;69.97;13.32;;;6.00;99.90;;;;;;5095984;28;20040;-82
2022/01/12 13:58:06;;;;;;;77.55;12.13;;;5.90;99.90;;;;;;5113012;28;20043;-80
2022/01/12 14:00:35;;;;;;;49.78;9.80;;;5.90;99.90;;;;;;5096202;28;20439;-81
2022/01/12 14:03:12;;;;;;;59.33;10.48;;;5.90;99.90;;;;;;5096237;28;20593;-80
2022/01/12 14:05:39;;;;;;;44.03;10.70;;;5.80;99.90;;;;;;5097447;28;20476;-81